首页
METAR-TAF:

METAR-TAF

机场 :

布萊茲諾頓皇家空軍基地

Brize Norton, 英格兰

纬度: 51-45N, 经度: 001-35W, 海拔: 88米

当前天气观测

该预报发布于32分钟前的09:50 UTC
风速4节,风向南转南东
温度 6°C
湿度 93%
气压 994 hPa
能见度10公里或以上
散云层高于1800英尺, 积雨云.

METAR: EGVN 220950Z 16004KT 9999 SCT018CB 06/05 Q0994 BECMG SCT025

时间: 10:22 (10:22 UTC)

预报

该预报发布于23分钟前的09:59 UTC
预报有效从22日的 09点(UTC)到 23日的 09点(UTC)
风速10节,风向东南
能见度10公里或以上
散云层高于3000英尺
几率 30% :
短暂存在
从 22日的 09点(UTC)到 22日的 12点(UTC)
能見度: 7000
散云层高于1000英尺
多云层高于1800英尺, 积雨云.
阵雨
短暂存在
从 22日的 12点(UTC)到 22日的 17点(UTC)
能見度: 4500
多云层高于1000英尺
阵雨
几率 30% :
短暂存在
从 22日的 17点(UTC)到 22日的 24点(UTC)
散云层高于1200英尺
成为
从 23日的 00点(UTC)到 23日的 03点(UTC)
多云层高于1500英尺
短暂存在
从 23日的 00点(UTC)到 23日的 09点(UTC)
能見度: 7000
多云层高于1000英尺
几率 30% :
短暂存在
从 23日的 02点(UTC)到 23日的 09点(UTC)
能見度: 3000
多云层高于600英尺
小毛毛雨

TAF: EGVN 220959Z 2209/2309 13010KT 9999 SCT030 PROB30 TEMPO 2209/2212 7000 SHRA SCT010 BKN018CB TEMPO 2212/2217 4500 SHRA BKN010 PROB30 TEMPO 2217/2224 SCT012 BECMG 2300/2303 BKN015 TEMPO 2300/2309 7000 RA BKN010 PROB30 TEMPO 2302/2309 3000 -DZ BKN006

超过4000个机场的气象观测和天气预报(METAR&TAF报告)。

可查询的气象台以黄色和红色小点在地图上表示。

将鼠标移到小点上方,可查看气象台名称。

然后点击查看天气观测和预报。

如需切换地图:点击带黑十字的绿色按钮放大地图;点击带横线的绿色按钮缩小地图;或者点击绿色箭头查看邻近地区的地图。


METAR-TAF: